createdAt,value
2018-12-17T00:00:00.254Z,26.82
2018-12-17T00:02:28.638Z,27.82
2018-12-17T00:04:56.686Z,29.65
2018-12-17T00:07:25.058Z,27.80
2018-12-17T00:09:53.154Z,29.45
2018-12-17T00:12:21.201Z,29.30
2018-12-17T00:14:49.492Z,30.82
2018-12-17T00:17:17.606Z,27.27
2018-12-17T00:19:45.986Z,29.40
2018-12-17T00:22:14.062Z,29.75
2018-12-17T00:24:42.118Z,26.80
2018-12-17T00:27:10.169Z,27.60
2018-12-17T00:29:38.343Z,28.57
2018-12-17T00:32:06.501Z,27.00
2018-12-17T00:34:34.602Z,29.70
2018-12-17T00:37:02.707Z,30.77
2018-12-17T00:39:30.786Z,29.07
2018-12-17T00:41:58.988Z,31.65
2018-12-17T00:44:27.013Z,29.45
2018-12-17T00:46:55.303Z,30.17
2018-12-17T00:49:23.329Z,28.27
2018-12-17T00:51:51.337Z,30.65
2018-12-17T00:54:19.542Z,29.23
2018-12-17T00:56:47.594Z,29.72
2018-12-17T00:59:15.642Z,28.60
2018-12-17T01:01:43.709Z,29.85
2018-12-17T01:04:11.744Z,25.72
2018-12-17T01:06:39.793Z,27.42
2018-12-17T01:09:07.867Z,26.05
2018-12-17T01:11:35.980Z,30.27
2018-12-17T01:14:04.119Z,28.57
2018-12-17T01:16:32.196Z,27.32
2018-12-17T01:19:00.215Z,26.12
2018-12-17T01:24:16.076Z,28.27
2018-12-17T01:26:44.073Z,25.77
2018-12-17T01:29:12.103Z,28.00
2018-12-17T01:31:40.163Z,27.67
2018-12-17T01:34:08.202Z,26.50
2018-12-17T01:36:36.359Z,29.18
2018-12-17T01:39:06.346Z,25.62
2018-12-17T01:41:34.511Z,27.62
2018-12-17T01:44:02.751Z,26.80
2018-12-17T01:46:30.806Z,27.82
2018-12-17T01:48:58.778Z,26.65
2018-12-17T01:51:26.777Z,29.05
2018-12-17T01:53:54.917Z,27.65
2018-12-17T01:56:22.948Z,28.23
2018-12-17T01:58:51.049Z,29.32
2018-12-17T02:01:19.023Z,29.65
2018-12-17T02:03:47.053Z,25.45
2018-12-17T02:06:15.261Z,28.27
2018-12-17T02:08:43.544Z,27.40
2018-12-17T02:11:11.830Z,29.52
2018-12-17T02:13:39.939Z,25.97
2018-12-17T02:16:08.164Z,26.23
2018-12-17T02:18:36.285Z,26.60
2018-12-17T02:21:04.371Z,25.97
2018-12-17T02:23:32.425Z,26.23
2018-12-17T02:26:00.513Z,27.45
2018-12-17T02:28:28.586Z,28.67
2018-12-17T02:30:56.639Z,27.85
2018-12-17T02:33:24.778Z,27.65
2018-12-17T02:35:52.753Z,28.47
2018-12-17T02:38:20.804Z,27.75
2018-12-17T02:40:51.057Z,26.70
2018-12-17T02:43:19.200Z,26.30
2018-12-17T02:45:47.432Z,28.45
2018-12-17T02:48:15.519Z,27.50
2018-12-17T02:50:43.598Z,26.70
2018-12-17T02:53:11.831Z,25.35
2018-12-17T02:55:39.894Z,28.07
2018-12-17T02:58:08.082Z,27.50
2018-12-17T03:00:36.107Z,28.42
2018-12-17T03:03:04.414Z,25.25
2018-12-17T03:05:32.420Z,29.20
2018-12-17T03:08:00.599Z,26.85
2018-12-17T03:10:28.615Z,25.75
2018-12-17T03:12:56.731Z,27.00
2018-12-17T03:15:24.862Z,27.17
2018-12-17T03:17:52.938Z,26.57
2018-12-17T03:20:21.050Z,28.42
2018-12-17T03:22:49.156Z,25.82
2018-12-17T03:25:17.165Z,25.40
2018-12-17T03:27:45.159Z,26.65
2018-12-17T03:30:13.195Z,25.95
2018-12-17T03:32:41.300Z,25.95
2018-12-17T03:35:09.598Z,28.23
2018-12-17T03:37:37.648Z,26.50
2018-12-17T03:40:06.703Z,25.30
2018-12-17T03:42:34.852Z,24.90
2018-12-17T03:45:03.163Z,25.17
2018-12-17T03:47:31.187Z,26.30
2018-12-17T03:49:59.294Z,26.60
2018-12-17T03:52:27.398Z,24.07
2018-12-17T03:54:55.522Z,24.82
2018-12-17T03:57:23.771Z,25.85
2018-12-17T03:59:51.846Z,26.33
2018-12-17T04:02:19.864Z,25.95
2018-12-17T04:04:48.464Z,24.85
2018-12-17T04:07:16.607Z,25.25
2018-12-17T04:09:45.067Z,26.55
2018-12-17T04:12:13.174Z,27.00
2018-12-17T04:14:41.663Z,24.20
2018-12-17T04:17:09.725Z,26.25
2018-12-17T04:19:37.786Z,25.62
2018-12-17T04:22:05.787Z,25.70
2018-12-17T04:24:33.809Z,22.90
2018-12-17T04:27:01.868Z,24.47
2018-12-17T04:29:29.991Z,23.73
2018-12-17T04:31:57.961Z,23.77
2018-12-17T04:34:26.063Z,22.75
2018-12-17T04:36:54.125Z,23.40
2018-12-17T04:39:22.157Z,24.75
2018-12-17T04:41:50.242Z,22.95
2018-12-17T04:44:18.647Z,24.02
2018-12-17T04:46:46.684Z,23.45
2018-12-17T04:49:14.797Z,23.98
2018-12-17T04:51:42.894Z,24.18
2018-12-17T04:54:11.172Z,22.70
2018-12-17T04:56:39.274Z,24.30
2018-12-17T04:59:14.375Z,23.20
2018-12-17T05:01:37.731Z,22.85
2018-12-17T05:04:05.886Z,23.50
2018-12-17T05:06:33.866Z,22.50
2018-12-17T05:09:02.351Z,21.50
2018-12-17T05:11:30.370Z,23.27
2018-12-17T05:13:58.334Z,24.45
2018-12-17T05:16:26.532Z,22.22
2018-12-17T05:18:54.529Z,24.50
2018-12-17T05:21:22.946Z,23.50
2018-12-17T05:23:50.897Z,23.00
2018-12-17T05:26:19.089Z,21.82
2018-12-17T05:28:47.217Z,21.02
2018-12-17T05:31:15.390Z,23.20
2018-12-17T05:33:43.678Z,23.52
2018-12-17T05:36:12.411Z,21.00
2018-12-17T05:38:40.486Z,23.57
2018-12-17T05:41:08.608Z,22.77
2018-12-17T05:43:38.507Z,23.92
2018-12-17T05:46:07.362Z,21.25
2018-12-17T05:48:36.948Z,21.25
2018-12-17T05:51:05.116Z,22.07
2018-12-17T05:53:33.249Z,24.18
2018-12-17T05:56:02.532Z,24.87
2018-12-17T05:58:30.823Z,22.75
2018-12-17T06:01:06.986Z,25.60
2018-12-17T06:03:36.121Z,26.10
2018-12-17T06:06:04.422Z,27.17
2018-12-17T06:08:32.537Z,24.45
2018-12-17T06:11:01.282Z,26.60
2018-12-17T06:13:29.437Z,25.05
2018-12-17T06:15:57.500Z,29.05
2018-12-17T06:18:25.493Z,27.22
2018-12-17T06:20:53.851Z,25.40
2018-12-17T06:23:22.069Z,26.05
2018-12-17T06:25:50.152Z,28.10
2018-12-17T06:28:18.177Z,26.45
2018-12-17T06:30:46.219Z,25.95
2018-12-17T06:33:15.801Z,26.70
2018-12-17T06:35:44.028Z,29.67
2018-12-17T06:38:12.054Z,25.52
2018-12-17T06:40:40.074Z,30.32
2018-12-17T06:43:08.133Z,27.87
2018-12-17T06:45:36.202Z,29.72
2018-12-17T06:48:04.931Z,30.10
2018-12-17T06:50:33.250Z,28.42
2018-12-17T06:53:01.314Z,30.25
2018-12-17T06:55:29.385Z,29.95
2018-12-17T06:57:57.939Z,32.40
2018-12-17T07:00:26.281Z,29.95
2018-12-17T07:02:54.459Z,30.57
2018-12-17T07:05:22.482Z,28.38
2018-12-17T07:07:50.595Z,29.80
2018-12-17T07:10:18.668Z,34.30
2018-12-17T07:12:46.801Z,34.23
2018-12-17T07:15:14.973Z,31.02
2018-12-17T07:17:43.016Z,36.68
2018-12-17T07:20:11.836Z,36.23
2018-12-17T07:22:40.005Z,35.65
2018-12-17T07:25:08.158Z,34.30
2018-12-17T07:27:36.220Z,35.25
2018-12-17T07:30:05.327Z,34.00
2018-12-17T07:32:33.397Z,39.35
2018-12-17T07:35:01.482Z,38.40
2018-12-17T07:37:30.049Z,36.77
2018-12-17T07:39:58.227Z,39.70
2018-12-17T07:42:26.309Z,39.90
2018-12-17T07:44:54.465Z,37.30
2018-12-17T07:47:22.534Z,36.83
2018-12-17T07:49:50.618Z,32.03
2018-12-17T07:52:18.663Z,32.83
2018-12-17T07:54:46.878Z,34.78
2018-12-17T07:57:15.028Z,32.65
2018-12-17T07:59:43.218Z,35.20
2018-12-17T08:02:11.605Z,38.30
2018-12-17T08:04:39.750Z,36.63
2018-12-17T08:07:07.863Z,34.15
2018-12-17T08:09:36.513Z,39.05
2018-12-17T08:12:04.749Z,36.93
2018-12-17T08:14:32.918Z,42.10
2018-12-17T08:17:01.453Z,34.75
2018-12-17T08:19:29.740Z,42.40
2018-12-17T08:21:57.961Z,39.00
2018-12-17T08:24:25.982Z,40.45
2018-12-17T08:26:54.152Z,40.83
2018-12-17T08:29:22.306Z,37.10
2018-12-17T08:31:50.428Z,36.83
2018-12-17T08:34:18.874Z,37.75
2018-12-17T08:36:46.993Z,34.10
2018-12-17T08:39:15.148Z,36.63
2018-12-17T08:41:43.383Z,39.73
2018-12-17T08:44:11.690Z,42.40
2018-12-17T08:46:39.796Z,32.67
2018-12-17T08:49:07.884Z,35.40
2018-12-17T08:51:36.185Z,33.50
2018-12-17T08:54:04.388Z,37.25
2018-12-17T08:56:32.539Z,38.17
2018-12-17T08:59:00.668Z,36.58
2018-12-17T09:01:28.733Z,34.98
2018-12-17T09:03:56.853Z,37.42
2018-12-17T09:06:25.009Z,38.45
2018-12-17T09:08:53.134Z,35.38
2018-12-17T09:11:21.213Z,30.75
2018-12-17T09:13:49.407Z,35.90
2018-12-17T09:16:17.500Z,35.65
2018-12-17T09:18:45.670Z,32.75
2018-12-17T09:21:13.995Z,37.38
2018-12-17T09:23:42.253Z,36.25
2018-12-17T09:26:10.334Z,34.58
2018-12-17T09:28:38.680Z,34.35
2018-12-17T09:31:06.785Z,36.75
2018-12-17T09:33:35.183Z,33.65
2018-12-17T09:36:03.306Z,33.80
2018-12-17T09:38:31.476Z,32.10
2018-12-17T09:40:59.631Z,32.25
2018-12-17T09:43:28.427Z,32.67
2018-12-17T09:45:56.624Z,33.15
2018-12-17T09:48:24.726Z,32.55
2018-12-17T09:50:53.187Z,33.55
2018-12-17T09:53:21.368Z,31.00
2018-12-17T09:55:49.519Z,28.55
2018-12-17T09:58:17.661Z,30.80
2018-12-17T10:00:45.822Z,30.08
2018-12-17T10:03:14.286Z,30.30
2018-12-17T10:05:42.473Z,29.70
2018-12-17T10:08:10.855Z,31.62
2018-12-17T10:10:39.443Z,30.52
2018-12-17T10:13:07.627Z,31.50
2018-12-17T10:15:35.714Z,28.32
2018-12-17T10:18:03.910Z,27.65
2018-12-17T10:20:32.013Z,28.50
2018-12-17T10:23:00.144Z,26.25
2018-12-17T10:25:28.347Z,27.02
2018-12-17T10:27:56.435Z,28.57
2018-12-17T10:30:24.546Z,25.48
2018-12-17T10:32:52.712Z,24.82
2018-12-17T10:35:20.847Z,28.42
2018-12-17T10:37:48.885Z,26.27
2018-12-17T10:40:17.002Z,26.50
2018-12-17T10:42:45.432Z,23.22
2018-12-17T10:45:13.861Z,21.20
2018-12-17T10:47:42.099Z,22.73
2018-12-17T10:50:10.607Z,21.85
2018-12-17T10:52:38.810Z,23.42
2018-12-17T10:55:07.189Z,22.58
2018-12-17T10:57:35.278Z,24.25
2018-12-17T11:00:05.322Z,21.35
2018-12-17T11:02:34.599Z,22.55
2018-12-17T11:05:12.735Z,23.65
2018-12-17T11:07:40.886Z,21.23
2018-12-17T11:10:09.674Z,22.87
2018-12-17T11:12:38.278Z,23.05
2018-12-17T11:15:09.391Z,21.80
2018-12-17T11:17:37.557Z,21.35
2018-12-17T11:20:08.871Z,24.37
2018-12-17T11:22:37.070Z,22.42
2018-12-17T11:25:06.288Z,23.67
2018-12-17T11:27:34.615Z,23.65
2018-12-17T11:30:03.582Z,25.20
2018-12-17T11:32:31.680Z,22.22
2018-12-17T11:34:59.759Z,21.07
2018-12-17T11:37:27.911Z,23.20
2018-12-17T11:39:56.090Z,23.32
2018-12-17T11:42:24.217Z,19.50
2018-12-17T11:44:52.427Z,22.80
2018-12-17T11:47:20.622Z,25.30
2018-12-17T11:49:48.834Z,25.05
2018-12-17T11:52:17.111Z,22.40
2018-12-17T11:54:45.449Z,24.20
2018-12-17T11:58:13.071Z,22.58
2018-12-17T12:00:53.725Z,20.90
2018-12-17T12:03:19.839Z,21.40
2018-12-17T12:05:48.015Z,21.85
2018-12-17T12:08:16.308Z,20.50
2018-12-17T12:10:44.421Z,20.32
2018-12-17T12:13:12.609Z,21.42
2018-12-17T12:15:40.835Z,20.23
2018-12-17T12:18:08.938Z,19.25
2018-12-17T12:20:37.285Z,16.65
2018-12-17T12:23:05.421Z,19.90
2018-12-17T12:25:33.626Z,15.50
2018-12-17T12:28:01.879Z,17.98
2018-12-17T12:30:30.084Z,20.30
2018-12-17T12:32:58.202Z,18.10
2018-12-17T12:35:26.408Z,20.60
2018-12-17T12:37:54.663Z,21.87
2018-12-17T12:40:22.755Z,20.25
2018-12-17T12:42:51.717Z,18.50
2018-12-17T12:45:20.248Z,20.17
2018-12-17T12:47:48.394Z,21.10
2018-12-17T12:50:16.687Z,20.77
2018-12-17T12:52:44.758Z,20.72
2018-12-17T12:55:12.939Z,21.12
2018-12-17T12:57:40.953Z,22.52
2018-12-17T13:00:13.425Z,23.27
2018-12-17T13:02:41.575Z,20.70
2018-12-17T13:05:09.731Z,22.32
2018-12-17T13:07:37.776Z,20.90
2018-12-17T13:10:10.039Z,20.90
2018-12-17T13:12:38.335Z,23.15
2018-12-17T13:15:08.763Z,24.98
2018-12-17T13:17:37.330Z,22.60
2018-12-17T13:20:08.471Z,21.42
2018-12-17T13:22:36.723Z,21.12
2018-12-17T13:25:08.203Z,20.55
2018-12-17T13:27:36.495Z,23.87
2018-12-17T13:30:08.030Z,22.35
2018-12-17T13:32:36.335Z,21.27
2018-12-17T13:35:05.803Z,21.75
2018-12-17T13:37:34.045Z,22.93
2018-12-17T13:40:02.301Z,21.30
2018-12-17T13:42:30.541Z,23.45
2018-12-17T13:44:59.480Z,20.70
2018-12-17T13:47:27.783Z,22.45
2018-12-17T13:49:58.537Z,23.22
2018-12-17T13:52:32.318Z,20.57
2018-12-17T13:55:00.452Z,20.12
2018-12-17T13:57:28.678Z,20.97
2018-12-17T13:59:56.739Z,19.95
2018-12-17T14:02:24.934Z,21.40
2018-12-17T14:04:53.221Z,21.07
2018-12-17T14:07:21.495Z,20.68
2018-12-17T14:09:55.496Z,19.73
2018-12-17T14:12:23.659Z,22.58
2018-12-17T14:14:51.834Z,20.10
2018-12-17T14:17:25.816Z,21.05
2018-12-17T14:19:59.649Z,21.27
2018-12-17T14:22:27.777Z,23.90
2018-12-17T14:24:55.949Z,22.87
2018-12-17T14:27:24.183Z,23.00
2018-12-17T14:29:52.980Z,23.07
2018-12-17T14:32:21.418Z,23.55
2018-12-17T14:34:49.950Z,23.05
2018-12-17T14:37:18.276Z,23.38
2018-12-17T14:39:46.452Z,21.77
2018-12-17T14:42:14.777Z,23.45
2018-12-17T14:44:43.040Z,22.85
2018-12-17T14:47:11.440Z,23.07
2018-12-17T14:49:39.676Z,22.17
2018-12-17T14:52:07.948Z,22.27
2018-12-17T14:54:36.169Z,23.35
2018-12-17T14:57:04.454Z,23.85
2018-12-17T14:59:32.660Z,23.02
2018-12-17T15:02:00.857Z,24.05
2018-12-17T15:04:29.064Z,22.80
2018-12-17T15:06:57.183Z,21.77
2018-12-17T15:09:25.394Z,22.17
2018-12-17T15:11:53.517Z,23.05
2018-12-17T15:14:21.690Z,23.20
2018-12-17T15:16:49.849Z,23.87
2018-12-17T15:19:17.901Z,22.05
2018-12-17T15:21:46.175Z,22.98
2018-12-17T15:24:14.334Z,21.17
2018-12-17T15:26:42.592Z,21.12
2018-12-17T15:29:10.874Z,20.85
2018-12-17T15:31:42.958Z,21.40
2018-12-17T15:34:09.435Z,20.48
2018-12-17T15:36:37.582Z,20.45
2018-12-17T15:39:06.498Z,20.92
2018-12-17T15:41:34.910Z,18.62
2018-12-17T15:44:03.610Z,19.25
2018-12-17T15:46:31.822Z,17.50
2018-12-17T15:49:00.028Z,17.12
2018-12-17T15:51:28.271Z,15.40
2018-12-17T15:53:58.478Z,16.00
2018-12-17T15:56:26.754Z,15.28
2018-12-17T15:58:54.914Z,16.55
2018-12-17T16:01:23.226Z,15.88
2018-12-17T16:03:51.392Z,15.75
2018-12-17T16:06:19.566Z,15.15
2018-12-17T16:08:47.864Z,14.28
2018-12-17T16:11:16.183Z,17.62
2018-12-17T16:13:44.373Z,16.32
2018-12-17T16:16:12.576Z,14.90
2018-12-17T16:18:42.069Z,14.10
2018-12-17T16:21:10.384Z,14.85
2018-12-17T16:23:38.541Z,14.60
2018-12-17T16:26:06.806Z,14.80
2018-12-17T16:28:34.914Z,14.45
2018-12-17T16:31:03.130Z,13.60
2018-12-17T16:33:31.385Z,13.35
2018-12-17T16:35:59.592Z,15.88
2018-12-17T16:38:27.788Z,15.40
2018-12-17T16:40:55.948Z,15.68
2018-12-17T16:43:24.068Z,14.90
2018-12-17T16:45:52.262Z,14.90
2018-12-17T16:48:20.486Z,14.95
2018-12-17T16:50:48.711Z,14.00
2018-12-17T16:53:16.956Z,15.13
2018-12-17T16:55:45.118Z,14.73
2018-12-17T16:58:13.379Z,14.13
2018-12-17T17:00:41.805Z,15.85
2018-12-17T17:03:10.126Z,16.35
2018-12-17T17:05:38.393Z,15.70
2018-12-17T17:08:06.506Z,14.60
2018-12-17T17:10:34.764Z,14.30
2018-12-17T17:13:03.321Z,14.53
2018-12-17T17:15:31.680Z,15.72
2018-12-17T17:18:00.019Z,14.70
2018-12-17T17:20:28.264Z,14.53
2018-12-17T17:22:56.516Z,15.90
2018-12-17T17:25:24.896Z,15.60
2018-12-17T17:27:53.133Z,19.10
2018-12-17T17:30:21.460Z,18.15
2018-12-17T17:32:49.678Z,17.85
2018-12-17T17:35:17.954Z,18.17
2018-12-17T17:37:46.176Z,16.82
2018-12-17T17:40:14.491Z,17.12
2018-12-17T17:42:42.678Z,17.15
2018-12-17T17:45:10.871Z,17.25
2018-12-17T17:47:39.219Z,16.62
2018-12-17T17:50:07.765Z,17.82
2018-12-17T17:52:36.069Z,16.80
2018-12-17T17:55:04.675Z,15.93
2018-12-17T17:57:32.941Z,18.73
2018-12-17T18:00:01.327Z,17.75
2018-12-17T18:02:29.668Z,18.60
2018-12-17T18:04:58.082Z,16.05
2018-12-17T18:07:26.610Z,17.87
2018-12-17T18:09:55.796Z,17.48
2018-12-17T18:12:24.194Z,19.42
2018-12-17T18:14:52.571Z,16.65
2018-12-17T18:17:21.041Z,19.80
2018-12-17T18:19:49.867Z,17.70
2018-12-17T18:22:18.402Z,17.80
2018-12-17T18:24:47.061Z,16.73
2018-12-17T18:27:15.454Z,17.75
2018-12-17T18:29:43.634Z,18.45
2018-12-17T18:32:12.028Z,17.25
2018-12-17T18:34:40.197Z,16.42
2018-12-17T18:37:08.477Z,18.02
2018-12-17T18:39:36.847Z,17.15
2018-12-17T18:42:05.242Z,15.55
2018-12-17T18:44:33.822Z,14.68
2018-12-17T18:47:02.153Z,16.17
2018-12-17T18:49:30.512Z,15.98
2018-12-17T18:51:58.791Z,16.42
2018-12-17T18:54:27.218Z,15.65
2018-12-17T18:56:55.489Z,16.05
2018-12-17T18:59:23.872Z,14.58
2018-12-17T19:01:52.285Z,15.43
2018-12-17T19:04:21.023Z,15.55
2018-12-17T19:06:49.363Z,15.80
2018-12-17T19:09:17.788Z,16.67
2018-12-17T19:11:46.034Z,15.28
2018-12-17T19:14:14.451Z,15.78
2018-12-17T19:16:42.789Z,15.43
2018-12-17T19:19:11.000Z,15.28
2018-12-17T19:21:40.552Z,15.95
2018-12-17T19:24:08.942Z,16.20
2018-12-17T19:26:37.779Z,17.10
2018-12-17T19:29:06.220Z,16.50
2018-12-17T19:31:34.945Z,17.35
2018-12-17T19:34:03.381Z,15.48
2018-12-17T19:36:31.770Z,17.02
2018-12-17T19:39:00.342Z,16.00
2018-12-17T19:41:28.815Z,15.80
2018-12-17T19:43:57.042Z,15.72
2018-12-17T19:46:25.372Z,16.30
2018-12-17T19:48:53.783Z,16.80
2018-12-17T19:51:22.237Z,16.10
2018-12-17T19:53:50.693Z,17.35
2018-12-17T19:56:19.161Z,15.38
2018-12-17T19:58:47.585Z,14.75
2018-12-17T20:01:15.962Z,14.18
2018-12-17T20:03:44.555Z,14.35
2018-12-17T20:06:12.891Z,13.68
2018-12-17T20:08:41.281Z,12.98
2018-12-17T20:11:09.626Z,14.45
2018-12-17T20:13:37.965Z,13.45
2018-12-17T20:16:06.412Z,14.20
2018-12-17T20:18:34.690Z,14.05
2018-12-17T20:21:03.416Z,16.60
2018-12-17T20:23:32.036Z,14.65
2018-12-17T20:26:00.669Z,14.70
2018-12-17T20:28:29.606Z,13.45
2018-12-17T20:30:58.162Z,11.80
2018-12-17T20:33:26.635Z,14.80
2018-12-17T20:35:54.993Z,14.60
2018-12-17T20:38:23.262Z,13.78
2018-12-17T20:40:52.312Z,14.25
2018-12-17T20:43:20.809Z,13.65
2018-12-17T20:45:49.406Z,12.85
2018-12-17T20:48:17.800Z,14.23
2018-12-17T20:50:47.113Z,14.95
2018-12-17T20:53:15.498Z,13.28
2018-12-17T20:55:44.170Z,13.00
2018-12-17T20:58:12.795Z,13.72
2018-12-17T21:00:41.109Z,13.95
2018-12-17T21:03:09.721Z,15.05
2018-12-17T21:05:38.022Z,14.35
2018-12-17T21:08:08.266Z,12.58
2018-12-17T21:10:36.799Z,13.32
2018-12-17T21:13:05.192Z,13.90
2018-12-17T21:15:38.785Z,13.38
2018-12-17T21:18:07.364Z,14.98
2018-12-17T21:20:35.748Z,13.55
2018-12-17T21:25:52.491Z,14.30
2018-12-17T21:28:20.747Z,12.82
2018-12-17T21:30:49.464Z,14.40
2018-12-17T21:33:18.080Z,15.60
2018-12-17T21:35:46.668Z,15.95
2018-12-17T21:38:15.289Z,13.75
2018-12-17T21:40:43.964Z,13.20
2018-12-17T21:43:12.835Z,12.20
2018-12-17T21:45:41.605Z,13.03
2018-12-17T21:48:10.346Z,15.43
2018-12-17T21:50:38.752Z,13.48
2018-12-17T21:53:07.599Z,13.53
2018-12-17T21:55:36.068Z,13.53
2018-12-17T21:58:04.644Z,11.90
2018-12-17T22:00:33.262Z,13.68
2018-12-17T22:03:02.085Z,13.60
2018-12-17T22:05:30.771Z,14.20
2018-12-17T22:07:59.165Z,13.68
2018-12-17T22:10:32.456Z,15.13
2018-12-17T22:13:00.834Z,14.23
2018-12-17T22:15:29.146Z,13.58
2018-12-17T22:17:57.875Z,12.50
2018-12-17T22:20:26.124Z,12.63
2018-12-17T22:22:54.659Z,13.53
2018-12-17T22:25:22.859Z,13.85
2018-12-17T22:27:51.103Z,14.90
2018-12-17T22:30:19.349Z,13.65
2018-12-17T22:32:47.688Z,14.98
2018-12-17T22:35:16.079Z,13.98
2018-12-17T22:37:44.359Z,13.93
2018-12-17T22:40:12.688Z,12.88
2018-12-17T22:42:40.864Z,13.88
2018-12-17T22:45:09.188Z,13.95
2018-12-17T22:47:37.471Z,14.05
2018-12-17T22:50:06.757Z,12.95
2018-12-17T22:52:34.965Z,16.32
2018-12-17T22:55:03.448Z,14.38
2018-12-17T22:57:31.738Z,14.65
2018-12-17T23:00:00.092Z,14.87
2018-12-17T23:02:28.492Z,15.65
2018-12-17T23:04:56.654Z,14.85
2018-12-17T23:07:25.852Z,14.53
2018-12-17T23:10:11.121Z,13.58
2018-12-17T23:12:56.454Z,14.20
2018-12-17T23:15:41.781Z,13.95
2018-12-17T23:18:08.413Z,14.50
2018-12-17T23:20:36.807Z,13.62
2018-12-17T23:23:05.029Z,13.68
2018-12-17T23:25:33.684Z,15.05
2018-12-17T23:28:02.094Z,14.15
2018-12-17T23:30:30.338Z,13.58
2018-12-17T23:32:59.264Z,14.25
2018-12-17T23:35:27.686Z,13.75
2018-12-17T23:37:55.853Z,14.25
2018-12-17T23:40:24.057Z,14.10
2018-12-17T23:42:52.206Z,14.98
2018-12-17T23:45:20.628Z,15.55
2018-12-17T23:47:48.977Z,13.90
2018-12-17T23:50:17.855Z,16.55
2018-12-17T23:52:45.994Z,14.90
2018-12-17T23:55:14.119Z,14.87
2018-12-17T23:57:42.295Z,15.80
